createdAt,value
2022-08-11T00:00:57.325Z,1011.8
2022-08-11T00:01:57.316Z,1011.73
2022-08-11T00:02:57.306Z,1011.81
2022-08-11T00:03:57.302Z,1011.79
2022-08-11T00:04:57.286Z,1011.79
2022-08-11T00:05:57.279Z,1011.79
2022-08-11T00:06:57.271Z,1011.78
2022-08-11T00:07:57.252Z,1011.75
2022-08-11T00:08:57.245Z,1011.79
2022-08-11T00:09:57.249Z,1011.79
2022-08-11T00:10:57.219Z,1011.8
2022-08-11T00:11:57.213Z,1011.81
2022-08-11T00:12:57.212Z,1011.81
2022-08-11T00:13:57.192Z,1011.82
2022-08-11T00:14:57.176Z,1011.79
2022-08-11T00:15:57.170Z,1011.78
2022-08-11T00:16:57.164Z,1011.75
2022-08-11T00:17:57.166Z,1011.73
2022-08-11T00:18:57.134Z,1011.76
2022-08-11T00:19:57.130Z,1011.7
2022-08-11T00:20:57.112Z,1011.76
2022-08-11T00:21:57.106Z,1011.67
2022-08-11T00:22:57.095Z,1011.69
2022-08-11T00:23:57.095Z,1011.73
2022-08-11T00:24:57.737Z,1011.72
2022-08-11T00:25:57.062Z,1011.7
2022-08-11T00:26:57.056Z,1011.69
2022-08-11T00:27:57.056Z,1011.7
2022-08-11T00:28:57.031Z,1011.72
2022-08-11T00:29:57.025Z,1011.72
2022-08-11T00:30:57.006Z,1011.68
2022-08-11T00:31:57.000Z,1011.68
2022-08-11T00:32:56.998Z,1011.72
2022-08-11T00:33:56.993Z,1011.7
2022-08-11T00:34:57.016Z,1011.68
2022-08-11T00:35:56.958Z,1011.7
2022-08-11T00:36:56.945Z,1011.71
2022-08-11T00:37:56.949Z,1011.69
2022-08-11T00:38:56.928Z,1011.71
2022-08-11T00:39:56.917Z,1011.69
2022-08-11T00:40:56.903Z,1011.71
2022-08-11T00:41:56.916Z,1011.73
2022-08-11T00:42:56.888Z,1011.67
2022-08-11T00:43:56.874Z,1011.73
2022-08-11T00:44:56.877Z,1011.72
2022-08-11T00:45:56.851Z,1011.76
2022-08-11T00:46:56.847Z,1011.75
2022-08-11T00:47:56.858Z,1011.73
2022-08-11T00:48:56.824Z,1011.74
2022-08-11T00:49:56.819Z,1011.77
2022-08-11T00:50:56.810Z,1011.69
2022-08-11T00:51:56.794Z,1011.72
2022-08-11T00:52:56.782Z,1011.74
2022-08-11T00:53:56.776Z,1011.74
2022-08-11T00:54:56.762Z,1011.79
2022-08-11T00:55:56.754Z,1011.75
2022-08-11T00:56:56.736Z,1011.74
2022-08-11T00:57:56.730Z,1011.75
2022-08-11T00:58:56.715Z,1011.73
2022-08-11T00:59:56.706Z,1011.73
2022-08-11T01:00:56.690Z,1011.78
2022-08-11T01:01:56.684Z,1011.75
2022-08-11T01:02:56.684Z,1011.75
2022-08-11T01:03:56.663Z,1011.77
2022-08-11T01:04:56.663Z,1011.72
2022-08-11T01:05:56.640Z,1011.72
2022-08-11T01:06:56.632Z,1011.79
2022-08-11T01:07:56.633Z,1011.78
2022-08-11T01:08:56.612Z,1011.72
2022-08-11T01:09:56.599Z,1011.78
2022-08-11T01:10:56.594Z,1011.75
2022-08-11T01:11:56.578Z,1011.75
2022-08-11T01:12:56.578Z,1011.78
2022-08-11T01:13:56.560Z,1011.76
2022-08-11T01:14:56.555Z,1011.84
2022-08-11T01:15:56.538Z,1011.77
2022-08-11T01:16:56.526Z,1011.81
2022-08-11T01:17:56.518Z,1011.79
2022-08-11T01:18:56.505Z,1011.83
2022-08-11T01:19:56.496Z,1011.8
2022-08-11T01:20:56.484Z,1011.84
2022-08-11T01:21:56.483Z,1011.81
2022-08-11T01:22:56.485Z,1011.87
2022-08-11T01:23:56.622Z,1011.84
2022-08-11T01:24:56.445Z,1011.96
2022-08-11T01:25:56.431Z,1011.88
2022-08-11T01:26:56.419Z,1011.92
2022-08-11T01:27:56.411Z,1011.91
2022-08-11T01:28:56.403Z,1011.91
2022-08-11T01:29:56.396Z,1011.9
2022-08-11T01:30:56.385Z,1011.91
2022-08-11T01:31:56.378Z,1011.91
2022-08-11T01:32:56.367Z,1011.89
2022-08-11T01:33:56.358Z,1011.9
2022-08-11T01:34:56.356Z,1011.88
2022-08-11T01:35:56.334Z,1011.91
2022-08-11T01:36:56.325Z,1011.87
2022-08-11T01:37:56.318Z,1011.93
2022-08-11T01:38:56.292Z,1011.91
2022-08-11T01:39:56.291Z,1011.95
2022-08-11T01:40:56.278Z,1011.85
2022-08-11T01:41:56.267Z,1011.85
2022-08-11T01:42:56.263Z,1011.88
2022-08-11T01:43:56.243Z,1011.89
2022-08-11T01:44:56.239Z,1011.85
2022-08-11T01:45:56.238Z,1011.83
2022-08-11T01:46:56.218Z,1011.84
2022-08-11T01:47:56.204Z,1011.82
2022-08-11T01:48:56.191Z,1011.8
2022-08-11T01:49:56.182Z,1011.84
2022-08-11T01:50:56.180Z,1011.76
2022-08-11T01:51:56.164Z,1011.81
2022-08-11T01:52:56.154Z,1011.86
2022-08-11T01:53:56.140Z,1011.8
2022-08-11T01:54:56.143Z,1011.86
2022-08-11T01:55:56.115Z,1011.84
2022-08-11T01:56:56.105Z,1011.8
2022-08-11T01:57:56.103Z,1011.77
2022-08-11T01:58:56.091Z,1011.8
2022-08-11T01:59:56.079Z,1011.83
2022-08-11T02:00:56.065Z,1011.82
2022-08-11T02:01:56.059Z,1011.84
2022-08-11T02:02:56.041Z,1011.87
2022-08-11T02:03:56.029Z,1011.87
2022-08-11T02:04:56.033Z,1011.84
2022-08-11T02:05:56.007Z,1011.92
2022-08-11T02:06:55.998Z,1011.89
2022-08-11T02:07:56.007Z,1011.95
2022-08-11T02:08:55.977Z,1011.91
2022-08-11T02:09:55.969Z,1011.92
2022-08-11T02:10:55.961Z,1011.91
2022-08-11T02:11:55.946Z,1011.84
2022-08-11T02:12:55.941Z,1011.93
2022-08-11T02:13:55.928Z,1011.9
2022-08-11T02:14:55.912Z,1011.9
2022-08-11T02:15:55.909Z,1011.87
2022-08-11T02:16:55.901Z,1011.89
2022-08-11T02:17:55.888Z,1011.86
2022-08-11T02:18:55.874Z,1011.91
2022-08-11T02:19:55.867Z,1011.86
2022-08-11T02:20:55.863Z,1011.85
2022-08-11T02:21:55.840Z,1011.84
2022-08-11T02:22:55.836Z,1011.87
2022-08-11T02:23:55.819Z,1011.85
2022-08-11T02:24:55.813Z,1011.82
2022-08-11T02:25:55.798Z,1011.94
2022-08-11T02:26:55.788Z,1011.85
2022-08-11T02:27:55.779Z,1011.88
2022-08-11T02:28:55.770Z,1011.9
2022-08-11T02:29:55.765Z,1011.89
2022-08-11T02:30:55.747Z,1011.91
2022-08-11T02:31:55.735Z,1011.84
2022-08-11T02:32:55.722Z,1011.84
2022-08-11T02:33:55.715Z,1011.84
2022-08-11T02:34:55.704Z,1011.85
2022-08-11T02:35:55.692Z,1011.81
2022-08-11T02:36:55.695Z,1011.81
2022-08-11T02:37:55.677Z,1011.87
2022-08-11T02:38:55.665Z,1011.83
2022-08-11T02:39:55.651Z,1011.8
2022-08-11T02:40:55.670Z,1011.8
2022-08-11T02:41:55.634Z,1011.88
2022-08-11T02:42:55.617Z,1011.87
2022-08-11T02:43:55.615Z,1011.84
2022-08-11T02:44:55.596Z,1011.87
2022-08-11T02:45:55.599Z,1011.88
2022-08-11T02:46:55.585Z,1011.91
2022-08-11T02:47:55.573Z,1011.9
2022-08-11T02:48:55.557Z,1011.9
2022-08-11T02:49:55.543Z,1011.88
2022-08-11T02:50:55.537Z,1011.91
2022-08-11T02:51:55.543Z,1011.9
2022-08-11T02:52:55.514Z,1011.99
2022-08-11T02:53:55.500Z,1011.93
2022-08-11T02:54:55.490Z,1011.95
2022-08-11T02:55:55.483Z,1011.97
2022-08-11T02:56:55.473Z,1011.99
2022-08-11T02:57:55.464Z,1011.99
2022-08-11T02:58:55.450Z,1011.99
2022-08-11T02:59:55.447Z,1011.99
2022-08-11T03:00:55.428Z,1011.95
2022-08-11T03:01:55.417Z,1011.95
2022-08-11T03:02:55.406Z,1011.92
2022-08-11T03:03:55.404Z,1011.86
2022-08-11T03:04:55.386Z,1011.95
2022-08-11T03:05:55.377Z,1011.89
2022-08-11T03:06:55.383Z,1011.86
2022-08-11T03:07:55.358Z,1011.84
2022-08-11T03:08:55.345Z,1011.92
2022-08-11T03:09:55.332Z,1011.95
2022-08-11T03:10:55.329Z,1011.88
2022-08-11T03:11:55.315Z,1011.94
2022-08-11T03:12:55.303Z,1011.92
2022-08-11T03:13:55.291Z,1011.95
2022-08-11T03:14:55.279Z,1011.95
2022-08-11T03:15:55.272Z,1011.98
2022-08-11T03:16:55.256Z,1011.97
2022-08-11T03:17:55.247Z,1011.95
2022-08-11T03:18:55.253Z,1011.97
2022-08-11T03:19:55.227Z,1011.9
2022-08-11T03:20:55.234Z,1011.94
2022-08-11T03:21:55.205Z,1011.95
2022-08-11T03:22:55.194Z,1011.93
2022-08-11T03:23:55.194Z,1011.91
2022-08-11T03:24:55.190Z,1011.93
2022-08-11T03:25:55.188Z,1011.93
2022-08-11T03:26:55.183Z,1011.93
2022-08-11T03:27:55.143Z,1011.91
2022-08-11T03:28:55.128Z,1011.92
2022-08-11T03:29:55.126Z,1011.85
2022-08-11T03:30:55.113Z,1011.89
2022-08-11T03:31:55.100Z,1011.9
2022-08-11T03:32:55.115Z,1011.91
2022-08-11T03:33:55.079Z,1011.94
2022-08-11T03:34:55.073Z,1011.92
2022-08-11T03:35:55.062Z,1011.88
2022-08-11T03:36:55.074Z,1011.94
2022-08-11T03:37:55.036Z,1011.92
2022-08-11T03:38:55.030Z,1011.94
2022-08-11T03:39:55.016Z,1011.95
2022-08-11T03:40:55.007Z,1011.96
2022-08-11T03:41:54.999Z,1012.01
2022-08-11T03:42:55.003Z,1011.96
2022-08-11T03:43:54.971Z,1011.99
2022-08-11T03:44:54.964Z,1011.97
2022-08-11T03:45:54.966Z,1011.98
2022-08-11T03:46:54.948Z,1011.98
2022-08-11T03:47:54.943Z,1011.94
2022-08-11T03:48:54.920Z,1011.96
2022-08-11T03:49:54.913Z,1012
2022-08-11T03:50:54.905Z,1011.98
2022-08-11T03:51:54.885Z,1011.99
2022-08-11T03:52:54.877Z,1011.99
2022-08-11T03:53:54.879Z,1012.06
2022-08-11T03:54:54.853Z,1012.01
2022-08-11T03:55:54.844Z,1012.01
2022-08-11T03:56:54.832Z,1011.99
2022-08-11T03:57:54.825Z,1011.97
2022-08-11T03:58:54.813Z,1011.99
2022-08-11T03:59:54.826Z,1012.02
2022-08-11T04:00:54.799Z,1011.99
2022-08-11T04:01:54.788Z,1012.01
2022-08-11T04:02:54.771Z,1011.95
2022-08-11T04:03:54.769Z,1012
2022-08-11T04:04:54.759Z,1011.97
2022-08-11T04:05:54.743Z,1011.99
2022-08-11T04:06:54.736Z,1011.94
2022-08-11T04:07:54.724Z,1011.91
2022-08-11T04:08:54.719Z,1011.96
2022-08-11T04:09:54.702Z,1011.88
2022-08-11T04:10:54.693Z,1011.91
2022-08-11T04:11:54.702Z,1011.89
2022-08-11T04:12:54.665Z,1011.91
2022-08-11T04:13:54.658Z,1011.88
2022-08-11T04:14:54.650Z,1011.89
2022-08-11T04:15:54.636Z,1011.88
2022-08-11T04:16:54.630Z,1011.89
2022-08-11T04:17:54.620Z,1011.88
2022-08-11T04:18:54.603Z,1011.94
2022-08-11T04:19:54.606Z,1011.9
2022-08-11T04:20:54.582Z,1011.94
2022-08-11T04:21:54.572Z,1011.96
2022-08-11T04:22:54.571Z,1011.99
2022-08-11T04:23:54.557Z,1011.94
2022-08-11T04:24:54.542Z,1011.93
2022-08-11T04:25:54.532Z,1011.92
2022-08-11T04:26:54.523Z,1011.93
2022-08-11T04:27:54.528Z,1011.94
2022-08-11T04:28:54.502Z,1011.85
2022-08-11T04:29:54.500Z,1011.91
2022-08-11T04:30:54.478Z,1011.89
2022-08-11T04:31:54.481Z,1011.93
2022-08-11T04:32:54.462Z,1011.89
2022-08-11T04:33:54.443Z,1011.88
2022-08-11T04:34:54.448Z,1011.89
2022-08-11T04:35:54.433Z,1011.91
2022-08-11T04:36:54.427Z,1011.95
2022-08-11T04:37:54.405Z,1011.86
2022-08-11T04:38:54.396Z,1011.91
2022-08-11T04:39:54.385Z,1011.93
2022-08-11T04:40:54.374Z,1011.93
2022-08-11T04:41:54.363Z,1011.97
2022-08-11T04:42:54.355Z,1011.96
2022-08-11T04:43:54.360Z,1011.89
2022-08-11T04:44:54.340Z,1011.92
2022-08-11T04:45:54.325Z,1011.89
2022-08-11T04:46:54.313Z,1011.98
2022-08-11T04:47:54.297Z,1011.95
2022-08-11T04:48:54.309Z,1011.95
2022-08-11T04:49:54.277Z,1011.89
2022-08-11T04:50:54.268Z,1011.94
2022-08-11T04:51:54.262Z,1011.93
2022-08-11T04:52:54.249Z,1011.94
2022-08-11T04:53:54.238Z,1011.99
2022-08-11T04:54:54.222Z,1011.91
2022-08-11T04:55:54.215Z,1011.98
2022-08-11T04:56:54.200Z,1011.94
2022-08-11T04:57:54.199Z,1011.92
2022-08-11T04:58:54.179Z,1011.88
2022-08-11T04:59:54.167Z,1011.89
2022-08-11T05:00:54.162Z,1011.9
2022-08-11T05:01:54.148Z,1011.91
2022-08-11T05:02:54.143Z,1011.84
2022-08-11T05:03:54.146Z,1011.88
2022-08-11T05:04:54.117Z,1011.87
2022-08-11T05:05:54.124Z,1011.84
2022-08-11T05:06:54.108Z,1011.88
2022-08-11T05:07:54.087Z,1011.89
2022-08-11T05:08:54.096Z,1011.91
2022-08-11T05:09:54.066Z,1011.89
2022-08-11T05:10:54.069Z,1011.89
2022-08-11T05:11:54.046Z,1011.86
2022-08-11T05:12:54.043Z,1011.89
2022-08-11T05:13:54.018Z,1011.86
2022-08-11T05:14:54.018Z,1011.91
2022-08-11T05:15:54.004Z,1011.95
2022-08-11T05:16:54.011Z,1011.91
2022-08-11T05:17:53.984Z,1011.98
2022-08-11T05:18:53.993Z,1011.94
2022-08-11T05:19:53.963Z,1011.91
2022-08-11T05:20:53.951Z,1011.87
2022-08-11T05:21:53.954Z,1011.87
2022-08-11T05:22:53.932Z,1011.89
2022-08-11T05:23:53.919Z,1011.88
2022-08-11T05:24:53.910Z,1011.87
2022-08-11T05:25:53.896Z,1011.89
2022-08-11T05:26:53.886Z,1011.9
2022-08-11T05:27:53.874Z,1011.91
2022-08-11T05:28:53.877Z,1011.88
2022-08-11T05:29:53.856Z,1011.89
2022-08-11T05:30:53.841Z,1011.9
2022-08-11T05:31:53.851Z,1011.94
2022-08-11T05:32:53.842Z,1011.9
2022-08-11T05:33:53.814Z,1011.91
2022-08-11T05:34:53.807Z,1012
2022-08-11T05:35:53.793Z,1012
2022-08-11T05:36:53.786Z,1012
2022-08-11T05:37:53.771Z,1012.01
2022-08-11T05:38:53.760Z,1012.01
2022-08-11T05:39:53.744Z,1012.01
2022-08-11T05:40:53.738Z,1012.02
2022-08-11T05:41:53.734Z,1011.98
2022-08-11T05:42:53.723Z,1012.02
2022-08-11T05:43:53.713Z,1011.98
2022-08-11T05:44:53.695Z,1012.02
2022-08-11T05:45:53.688Z,1011.99
2022-08-11T05:46:53.673Z,1012
2022-08-11T05:47:53.671Z,1011.99
2022-08-11T05:48:53.677Z,1011.93
2022-08-11T05:49:53.644Z,1011.99
2022-08-11T05:50:53.637Z,1011.93
2022-08-11T05:51:53.631Z,1011.94
2022-08-11T05:52:53.608Z,1011.96
2022-08-11T05:53:53.609Z,1011.92
2022-08-11T05:54:53.597Z,1011.93
2022-08-11T05:55:53.576Z,1011.94
2022-08-11T05:56:53.564Z,1011.93
2022-08-11T05:57:53.568Z,1011.94
2022-08-11T05:58:53.557Z,1011.96
2022-08-11T05:59:53.541Z,1011.97
2022-08-11T06:00:53.541Z,1011.95
2022-08-11T06:01:53.526Z,1012
2022-08-11T06:02:53.511Z,1011.9
2022-08-11T06:03:53.501Z,1011.85
2022-08-11T06:04:53.514Z,1011.89
2022-08-11T06:05:53.473Z,1011.9
2022-08-11T06:06:53.465Z,1011.89
2022-08-11T06:07:53.449Z,1011.96
2022-08-11T06:08:53.436Z,1011.93
2022-08-11T06:09:53.675Z,1011.94
2022-08-11T06:10:53.426Z,1011.95
2022-08-11T06:11:53.411Z,1011.91
2022-08-11T06:12:53.399Z,1011.96
2022-08-11T06:13:53.404Z,1011.94
2022-08-11T06:14:53.375Z,1011.92
2022-08-11T06:15:53.371Z,1011.9
2022-08-11T06:16:53.360Z,1011.87
2022-08-11T06:17:53.347Z,1011.93
2022-08-11T06:18:53.343Z,1011.88
2022-08-11T06:19:53.346Z,1011.85
2022-08-11T06:20:53.315Z,1011.92
2022-08-11T06:21:53.314Z,1011.88
2022-08-11T06:22:53.296Z,1011.91
2022-08-11T06:23:53.292Z,1011.94
2022-08-11T06:24:53.269Z,1011.93
2022-08-11T06:25:53.274Z,1011.95
2022-08-11T06:26:53.251Z,1011.88
2022-08-11T06:27:53.246Z,1011.85
2022-08-11T06:28:53.235Z,1011.92
2022-08-11T06:29:53.261Z,1011.88
2022-08-11T06:30:53.209Z,1011.91
2022-08-11T06:31:53.201Z,1011.9
2022-08-11T06:32:53.192Z,1011.95
2022-08-11T06:33:53.185Z,1011.9
2022-08-11T06:34:53.166Z,1011.87
2022-08-11T06:35:53.153Z,1011.89
2022-08-11T06:36:53.167Z,1011.86
2022-08-11T06:37:53.145Z,1011.85
2022-08-11T06:38:53.122Z,1011.88
2022-08-11T06:39:53.128Z,1011.89
2022-08-11T06:40:53.144Z,1011.88
2022-08-11T06:41:53.100Z,1011.86
2022-08-11T06:42:53.088Z,1011.86
2022-08-11T06:43:53.079Z,1011.88
2022-08-11T06:44:53.065Z,1011.81
2022-08-11T06:45:53.070Z,1011.81
2022-08-11T06:46:53.034Z,1011.81
2022-08-11T06:47:53.045Z,1011.84
2022-08-11T06:48:53.017Z,1011.85
2022-08-11T06:49:53.015Z,1011.86
2022-08-11T06:50:53.002Z,1011.84
2022-08-11T06:51:52.994Z,1011.87
2022-08-11T06:52:52.976Z,1011.8
2022-08-11T06:53:52.972Z,1011.85
2022-08-11T06:54:52.956Z,1011.85
2022-08-11T06:55:52.944Z,1011.8
2022-08-11T06:56:52.937Z,1011.82
2022-08-11T06:57:52.983Z,1011.82
2022-08-11T06:58:53.907Z,1011.82
2022-08-11T06:59:52.910Z,1011.85
2022-08-11T07:00:52.894Z,1011.87
2022-08-11T07:01:52.896Z,1011.87
2022-08-11T07:02:52.873Z,1011.8
2022-08-11T07:03:52.865Z,1011.8
2022-08-11T07:04:52.862Z,1011.8
2022-08-11T07:05:52.840Z,1011.79
2022-08-11T07:06:52.838Z,1011.78
2022-08-11T07:07:52.823Z,1011.75
2022-08-11T07:08:52.816Z,1011.77
2022-08-11T07:09:52.798Z,1011.78
2022-08-11T07:10:52.788Z,1011.77
2022-08-11T07:11:52.780Z,1011.79
2022-08-11T07:12:52.772Z,1011.76
2022-08-11T07:13:52.768Z,1011.76
2022-08-11T07:14:52.780Z,1011.79
2022-08-11T07:15:52.732Z,1011.74
2022-08-11T07:16:52.726Z,1011.76
2022-08-11T07:17:52.732Z,1011.8
2022-08-11T07:18:52.725Z,1011.81
2022-08-11T07:19:52.696Z,1011.81
2022-08-11T07:20:52.684Z,1011.83
2022-08-11T07:21:52.667Z,1011.74
2022-08-11T07:22:52.675Z,1011.76
2022-08-11T07:23:52.697Z,1011.82
2022-08-11T07:24:52.658Z,1011.81
2022-08-11T07:25:52.625Z,1011.79
2022-08-11T07:26:52.657Z,1011.7
2022-08-11T07:27:52.605Z,1011.8
2022-08-11T07:28:52.609Z,1011.78
2022-08-11T07:29:52.585Z,1011.78
2022-08-11T07:30:52.577Z,1011.77
2022-08-11T07:31:52.569Z,1011.83
2022-08-11T07:32:52.551Z,1011.75
2022-08-11T07:33:52.545Z,1011.75
2022-08-11T07:34:52.531Z,1011.77
2022-08-11T07:35:52.524Z,1011.76
2022-08-11T07:36:52.510Z,1011.81
2022-08-11T07:37:52.503Z,1011.72
2022-08-11T07:38:52.494Z,1011.77
2022-08-11T07:39:52.491Z,1011.8
2022-08-11T07:40:52.474Z,1011.78
2022-08-11T07:41:52.461Z,1011.73
2022-08-11T07:42:52.496Z,1011.72
2022-08-11T07:43:52.442Z,1011.67
2022-08-11T07:44:52.440Z,1011.75
2022-08-11T07:45:52.445Z,1011.71
2022-08-11T07:46:52.409Z,1011.73
2022-08-11T07:47:52.399Z,1011.72
2022-08-11T07:48:52.385Z,1011.7
2022-08-11T07:49:52.377Z,1011.73
2022-08-11T07:50:52.362Z,1011.73
2022-08-11T07:51:52.354Z,1011.72
2022-08-11T07:52:52.346Z,1011.69
2022-08-11T07:53:52.345Z,1011.76
2022-08-11T07:54:52.329Z,1011.73
2022-08-11T07:55:52.309Z,1011.7
2022-08-11T07:56:52.339Z,1011.67
2022-08-11T07:57:52.296Z,1011.71
2022-08-11T07:58:52.285Z,1011.67
2022-08-11T07:59:52.265Z,1011.68
2022-08-11T08:00:52.269Z,1011.69
2022-08-11T08:01:52.771Z,1011.72
2022-08-11T08:02:52.241Z,1011.71
2022-08-11T08:03:52.253Z,1011.74
2022-08-11T08:04:52.220Z,1011.81
2022-08-11T08:05:52.212Z,1011.72
2022-08-11T08:06:52.196Z,1011.72
2022-08-11T08:07:52.239Z,1011.74
2022-08-11T08:08:52.204Z,1011.75
2022-08-11T08:09:52.241Z,1011.74
2022-08-11T08:10:52.153Z,1011.76
2022-08-11T08:11:52.147Z,1011.8
2022-08-11T08:12:52.128Z,1011.72
2022-08-11T08:13:52.122Z,1011.7
2022-08-11T08:14:52.124Z,1011.78
2022-08-11T08:15:52.121Z,1011.77
2022-08-11T08:16:52.115Z,1011.79
2022-08-11T08:17:52.075Z,1011.78
2022-08-11T08:18:52.067Z,1011.82
2022-08-11T08:19:52.065Z,1011.81
2022-08-11T08:20:52.049Z,1011.75
2022-08-11T08:21:52.053Z,1011.8
2022-08-11T08:22:52.031Z,1011.74
2022-08-11T08:23:52.052Z,1011.79
2022-08-11T08:24:52.089Z,1011.79
2022-08-11T08:25:51.996Z,1011.81
2022-08-11T08:26:51.995Z,1011.84
2022-08-11T08:27:51.974Z,1011.78
2022-08-11T08:28:51.967Z,1011.74
2022-08-11T08:29:51.958Z,1011.78
2022-08-11T08:30:51.955Z,1011.76
2022-08-11T08:31:51.943Z,1011.81
2022-08-11T08:32:51.938Z,1011.68
2022-08-11T08:33:51.916Z,1011.73
2022-08-11T08:34:51.905Z,1011.7
2022-08-11T08:35:51.921Z,1011.72
2022-08-11T08:36:51.885Z,1011.68
2022-08-11T08:37:51.880Z,1011.76
2022-08-11T08:38:51.873Z,1011.71
2022-08-11T08:39:51.866Z,1011.7
2022-08-11T08:40:51.878Z,1011.7
2022-08-11T08:41:51.835Z,1011.7
2022-08-11T08:42:51.830Z,1011.71
2022-08-11T08:43:51.821Z,1011.73
2022-08-11T08:44:51.810Z,1011.68
2022-08-11T08:45:51.819Z,1011.7
2022-08-11T08:46:51.808Z,1011.69
2022-08-11T08:47:51.769Z,1011.71
2022-08-11T08:48:51.773Z,1011.66
2022-08-11T08:49:51.752Z,1011.72
2022-08-11T08:50:51.747Z,1011.69
2022-08-11T08:51:51.742Z,1011.72
2022-08-11T08:52:51.713Z,1011.7
2022-08-11T08:53:51.707Z,1011.67
2022-08-11T08:54:51.703Z,1011.65
2022-08-11T08:55:51.695Z,1011.71
2022-08-11T08:56:51.675Z,1011.67
2022-08-11T08:57:51.713Z,1011.66
2022-08-11T08:58:51.660Z,1011.73
2022-08-11T08:59:51.647Z,1011.62
2022-08-11T09:00:51.637Z,1011.61
2022-08-11T09:01:51.622Z,1011.61
2022-08-11T09:02:51.617Z,1011.59
2022-08-11T09:03:51.615Z,1011.64
2022-08-11T09:04:51.593Z,1011.61
2022-08-11T09:05:51.587Z,1011.63
2022-08-11T09:06:51.586Z,1011.64
2022-08-11T09:07:51.564Z,1011.58
2022-08-11T09:08:51.552Z,1011.59
2022-08-11T09:09:51.545Z,1011.55
2022-08-11T09:10:51.543Z,1011.61
2022-08-11T09:11:51.523Z,1011.55
2022-08-11T09:12:51.517Z,1011.57
2022-08-11T09:13:51.589Z,1011.58
2022-08-11T09:14:51.512Z,1011.58
2022-08-11T09:15:51.477Z,1011.56
2022-08-11T09:16:51.499Z,1011.6
2022-08-11T09:17:51.466Z,1011.57
2022-08-11T09:18:51.455Z,1011.58
2022-08-11T09:19:51.442Z,1011.52
2022-08-11T09:20:51.429Z,1011.48
2022-08-11T09:21:51.426Z,1011.54
2022-08-11T09:22:51.417Z,1011.52
2022-08-11T09:23:51.395Z,1011.54
2022-08-11T09:24:51.400Z,1011.55
2022-08-11T09:25:51.375Z,1011.53
2022-08-11T09:26:51.402Z,1011.5
2022-08-11T09:27:51.362Z,1011.53
2022-08-11T09:28:51.346Z,1011.56
2022-08-11T09:29:51.338Z,1011.53
2022-08-11T09:30:51.394Z,1011.52
2022-08-11T09:31:51.319Z,1011.45
2022-08-11T09:32:51.312Z,1011.52
2022-08-11T09:33:51.298Z,1011.45
2022-08-11T09:34:51.307Z,1011.53
2022-08-11T09:35:51.279Z,1011.55
2022-08-11T09:36:51.270Z,1011.43
2022-08-11T09:37:51.263Z,1011.45
2022-08-11T09:38:51.248Z,1011.46
2022-08-11T09:39:51.242Z,1011.45
2022-08-11T09:40:51.232Z,1011.5
2022-08-11T09:41:51.300Z,1011.47
2022-08-11T09:42:51.216Z,1011.45
2022-08-11T09:43:51.209Z,1011.43
2022-08-11T09:44:51.192Z,1011.45
2022-08-11T09:45:51.189Z,1011.37
2022-08-11T09:46:51.185Z,1011.44
2022-08-11T09:47:51.157Z,1011.35
2022-08-11T09:48:51.170Z,1011.36
2022-08-11T09:49:51.137Z,1011.38
2022-08-11T09:50:51.135Z,1011.38
2022-08-11T09:51:51.133Z,1011.44
2022-08-11T09:52:51.107Z,1011.39
2022-08-11T09:53:51.118Z,1011.37
2022-08-11T09:54:51.094Z,1011.36
2022-08-11T09:55:51.085Z,1011.3
2022-08-11T09:56:51.078Z,1011.35
2022-08-11T09:57:51.066Z,1011.31
2022-08-11T09:58:51.058Z,1011.27
2022-08-11T09:59:51.052Z,1011.31
2022-08-11T10:00:51.028Z,1011.3
2022-08-11T10:01:51.025Z,1011.27
2022-08-11T10:02:51.016Z,1011.22
2022-08-11T10:03:51.030Z,1011.32
2022-08-11T10:04:50.997Z,1011.31
2022-08-11T10:05:51.188Z,1011.26
2022-08-11T10:06:50.981Z,1011.23
2022-08-11T10:07:50.963Z,1011.19
2022-08-11T10:08:50.970Z,1011.15
2022-08-11T10:09:50.943Z,1011.22
2022-08-11T10:10:50.945Z,1011.26
2022-08-11T10:11:50.925Z,1011.19
2022-08-11T10:12:50.912Z,1011.14
2022-08-11T10:13:50.907Z,1011.2
2022-08-11T10:14:50.903Z,1011.12
2022-08-11T10:15:50.892Z,1011.19
2022-08-11T10:16:50.882Z,1011.16
2022-08-11T10:17:50.890Z,1011.23
2022-08-11T10:18:50.858Z,1011.18
2022-08-11T10:19:50.848Z,1011.12
2022-08-11T10:20:50.840Z,1011.13
2022-08-11T10:21:50.831Z,1011.1
2022-08-11T10:22:50.834Z,1011.07
2022-08-11T10:23:50.816Z,1011.14
2022-08-11T10:24:50.794Z,1011.13
2022-08-11T10:25:50.790Z,1011.11
2022-08-11T10:26:50.796Z,1011.1
2022-08-11T10:27:50.770Z,1011.12
2022-08-11T10:28:50.769Z,1011.13
2022-08-11T10:29:50.770Z,1011.09
2022-08-11T10:30:50.764Z,1011.03
2022-08-11T10:31:50.728Z,1011.06
2022-08-11T10:32:50.719Z,1011.14
2022-08-11T10:33:50.712Z,1011.1
2022-08-11T10:34:50.700Z,1011.08
2022-08-11T10:35:50.695Z,1011.06
2022-08-11T10:36:50.684Z,1011.1
2022-08-11T10:37:50.685Z,1011.06
2022-08-11T10:38:50.669Z,1011.02
2022-08-11T10:39:50.646Z,1010.98
2022-08-11T10:40:50.655Z,1010.95
2022-08-11T10:41:50.639Z,1010.93
2022-08-11T10:42:50.626Z,1010.88
2022-08-11T10:43:50.634Z,1010.95
2022-08-11T10:44:50.597Z,1010.9
2022-08-11T10:45:50.607Z,1010.87
2022-08-11T10:46:50.598Z,1010.97
2022-08-11T10:47:50.577Z,1010.97
2022-08-11T10:48:50.585Z,1010.92
2022-08-11T10:49:50.558Z,1010.91
2022-08-11T10:50:50.541Z,1010.9
2022-08-11T10:51:50.545Z,1010.87
2022-08-11T10:52:50.522Z,1010.87
2022-08-11T10:53:50.519Z,1010.89
2022-08-11T10:54:50.506Z,1010.86
2022-08-11T10:55:50.498Z,1010.85
2022-08-11T10:56:50.479Z,1010.81
2022-08-11T10:57:50.509Z,1010.81
2022-08-11T10:58:50.467Z,1010.8
2022-08-11T10:59:50.461Z,1010.79
2022-08-11T11:00:50.451Z,1010.77
2022-08-11T11:01:50.441Z,1010.77
2022-08-11T11:02:50.428Z,1010.76
2022-08-11T11:03:50.416Z,1010.81
2022-08-11T11:04:50.422Z,1010.76
2022-08-11T11:05:50.412Z,1010.82
2022-08-11T11:06:50.418Z,1010.78
2022-08-11T11:07:50.387Z,1010.82
2022-08-11T11:08:50.370Z,1010.81
2022-08-11T11:09:50.382Z,1010.78
2022-08-11T11:10:50.356Z,1010.75
2022-08-11T11:11:50.352Z,1010.8
2022-08-11T11:12:50.343Z,1010.81
2022-08-11T11:13:50.327Z,1010.81
2022-08-11T11:14:50.317Z,1010.79
2022-08-11T11:15:50.310Z,1010.79
2022-08-11T11:16:50.293Z,1010.67
2022-08-11T11:17:50.289Z,1010.72
2022-08-11T11:18:50.284Z,1010.79
2022-08-11T11:19:50.298Z,1010.79
2022-08-11T11:20:50.253Z,1010.78
2022-08-11T11:21:50.263Z,1010.76
2022-08-11T11:22:50.236Z,1010.76
2022-08-11T11:23:50.244Z,1010.78
2022-08-11T11:24:50.232Z,1010.77
2022-08-11T11:25:50.227Z,1010.71
2022-08-11T11:26:50.227Z,1010.77
2022-08-11T11:27:50.180Z,1010.75
2022-08-11T11:28:50.197Z,1010.76
2022-08-11T11:29:50.178Z,1010.79
2022-08-11T11:30:50.224Z,1010.73
2022-08-11T11:31:50.154Z,1010.74
2022-08-11T11:32:50.135Z,1010.72
2022-08-11T11:33:50.128Z,1010.7
2022-08-11T11:34:50.118Z,1010.68
2022-08-11T11:35:50.122Z,1010.75
2022-08-11T11:36:50.105Z,1010.73
2022-08-11T11:37:50.100Z,1010.73
2022-08-11T11:38:50.080Z,1010.74
2022-08-11T11:39:50.070Z,1010.75
2022-08-11T11:40:50.076Z,1010.68
2022-08-11T11:41:50.048Z,1010.75
2022-08-11T11:42:50.053Z,1010.75
2022-08-11T11:43:50.029Z,1010.81
2022-08-11T11:44:50.026Z,1010.77
2022-08-11T11:45:50.100Z,1010.73
2022-08-11T11:46:50.013Z,1010.67
2022-08-11T11:47:50.012Z,1010.69
2022-08-11T11:48:50.020Z,1010.7
2022-08-11T11:49:49.976Z,1010.7
2022-08-11T11:50:50.002Z,1010.7
2022-08-11T11:51:49.990Z,1010.71
2022-08-11T11:52:49.949Z,1010.7
2022-08-11T11:53:49.942Z,1010.76
2022-08-11T11:54:49.926Z,1010.69
2022-08-11T11:55:49.925Z,1010.67
2022-08-11T11:56:49.916Z,1010.75
2022-08-11T11:57:49.911Z,1010.7
2022-08-11T11:58:49.899Z,1010.58
2022-08-11T11:59:49.904Z,1010.57
2022-08-11T12:00:49.872Z,1010.59
2022-08-11T12:01:49.871Z,1010.55
2022-08-11T12:02:49.861Z,1010.63
2022-08-11T12:03:49.855Z,1010.56
2022-08-11T12:04:49.838Z,1010.56
2022-08-11T12:05:49.843Z,1010.56
2022-08-11T12:06:49.819Z,1010.57
2022-08-11T12:07:49.812Z,1010.57
2022-08-11T12:08:49.803Z,1010.55